sensor_id;sensor_type;location;lat;lon;timestamp;temperature;humidity
3281;DHT22;1652;51.318;6.202;2022-10-19T00:01:29;9.10;99.90
3281;DHT22;1652;51.318;6.202;2022-10-19T00:03:55;9.10;99.90
3281;DHT22;1652;51.318;6.202;2022-10-19T00:06:28;9.00;99.90
3281;DHT22;1652;51.318;6.202;2022-10-19T00:11:40;8.90;99.90
3281;DHT22;1652;51.318;6.202;2022-10-19T00:14:10;8.70;99.90
3281;DHT22;1652;51.318;6.202;2022-10-19T00:16:40;8.60;99.90
3281;DHT22;1652;51.318;6.202;2022-10-19T00:19:11;8.40;99.90
3281;DHT22;1652;51.318;6.202;2022-10-19T00:21:38;8.40;99.90
3281;DHT22;1652;51.318;6.202;2022-10-19T00:24:06;8.50;99.90
3281;DHT22;1652;51.318;6.202;2022-10-19T00:26:33;8.50;99.90
3281;DHT22;1652;51.318;6.202;2022-10-19T00:29:01;8.70;99.90
3281;DHT22;1652;51.318;6.202;2022-10-19T00:31:28;8.90;99.90
3281;DHT22;1652;51.318;6.202;2022-10-19T00:33:56;9.00;99.90
3281;DHT22;1652;51.318;6.202;2022-10-19T00:36:31;9.00;99.90
3281;DHT22;1652;51.318;6.202;2022-10-19T00:38:59;8.80;99.90
3281;DHT22;1652;51.318;6.202;2022-10-19T00:41:29;9.00;99.90
3281;DHT22;1652;51.318;6.202;2022-10-19T00:46:35;9.20;99.90
3281;DHT22;1652;51.318;6.202;2022-10-19T00:49:10;9.30;99.90
3281;DHT22;1652;51.318;6.202;2022-10-19T00:51:40;9.20;99.90
3281;DHT22;1652;51.318;6.202;2022-10-19T00:54:08;9.10;99.90
3281;DHT22;1652;51.318;6.202;2022-10-19T00:56:37;8.80;99.90
3281;DHT22;1652;51.318;6.202;2022-10-19T00:59:05;8.80;99.90
3281;DHT22;1652;51.318;6.202;2022-10-19T01:01:34;8.60;99.90
3281;DHT22;1652;51.318;6.202;2022-10-19T01:04:02;8.40;99.90
3281;DHT22;1652;51.318;6.202;2022-10-19T01:06:29;8.40;99.90
3281;DHT22;1652;51.318;6.202;2022-10-19T01:08:56;8.50;99.90
3281;DHT22;1652;51.318;6.202;2022-10-19T01:11:38;8.50;99.90
3281;DHT22;1652;51.318;6.202;2022-10-19T01:14:36;8.80;99.90
3281;DHT22;1652;51.318;6.202;2022-10-19T01:34:53;9.00;99.90
3281;DHT22;1652;51.318;6.202;2022-10-19T01:37:29;9.10;99.90
3281;DHT22;1652;51.318;6.202;2022-10-19T01:40:37;9.00;99.90
3281;DHT22;1652;51.318;6.202;2022-10-19T01:43:25;9.00;99.90
3281;DHT22;1652;51.318;6.202;2022-10-19T01:48:47;9.00;99.90
3281;DHT22;1652;51.318;6.202;2022-10-19T01:51:24;8.90;99.90
3281;DHT22;1652;51.318;6.202;2022-10-19T01:53:56;8.90;99.90
3281;DHT22;1652;51.318;6.202;2022-10-19T01:56:26;8.80;99.90
3281;DHT22;1652;51.318;6.202;2022-10-19T01:58:57;8.70;99.90
3281;DHT22;1652;51.318;6.202;2022-10-19T02:01:29;8.70;99.90
3281;DHT22;1652;51.318;6.202;2022-10-19T02:03:59;8.80;99.90
3281;DHT22;1652;51.318;6.202;2022-10-19T02:06:26;8.80;99.90
3281;DHT22;1652;51.318;6.202;2022-10-19T02:08:53;8.80;99.90
3281;DHT22;1652;51.318;6.202;2022-10-19T02:11:22;8.90;99.90
3281;DHT22;1652;51.318;6.202;2022-10-19T02:13:55;8.80;99.90
3281;DHT22;1652;51.318;6.202;2022-10-19T02:16:33;8.80;99.90
3281;DHT22;1652;51.318;6.202;2022-10-19T02:19:02;8.80;99.90
3281;DHT22;1652;51.318;6.202;2022-10-19T02:21:30;8.70;99.90
3281;DHT22;1652;51.318;6.202;2022-10-19T02:23:58;8.70;99.90
3281;DHT22;1652;51.318;6.202;2022-10-19T02:26:25;8.70;99.90
3281;DHT22;1652;51.318;6.202;2022-10-19T02:28:55;8.80;99.90
3281;DHT22;1652;51.318;6.202;2022-10-19T02:31:23;8.70;99.90
3281;DHT22;1652;51.318;6.202;2022-10-19T02:33:51;8.80;99.90
3281;DHT22;1652;51.318;6.202;2022-10-19T02:36:19;8.80;99.90
3281;DHT22;1652;51.318;6.202;2022-10-19T02:38:46;8.80;99.90
3281;DHT22;1652;51.318;6.202;2022-10-19T02:41:38;8.80;99.90
3281;DHT22;1652;51.318;6.202;2022-10-19T02:44:28;8.80;99.90
3281;DHT22;1652;51.318;6.202;2022-10-19T02:47:01;8.80;99.90
3281;DHT22;1652;51.318;6.202;2022-10-19T02:49:29;8.70;99.90
3281;DHT22;1652;51.318;6.202;2022-10-19T02:52:01;8.70;99.90
3281;DHT22;1652;51.318;6.202;2022-10-19T02:54:29;8.70;99.90
3281;DHT22;1652;51.318;6.202;2022-10-19T02:56:56;8.70;99.90
3281;DHT22;1652;51.318;6.202;2022-10-19T02:59:23;8.70;99.90
3281;DHT22;1652;51.318;6.202;2022-10-19T03:01:51;8.70;99.90
3281;DHT22;1652;51.318;6.202;2022-10-19T03:04:18;8.70;99.90
3281;DHT22;1652;51.318;6.202;2022-10-19T03:06:45;8.70;99.90
3281;DHT22;1652;51.318;6.202;2022-10-19T03:09:12;8.80;99.90
3281;DHT22;1652;51.318;6.202;2022-10-19T03:11:39;8.70;99.90
3281;DHT22;1652;51.318;6.202;2022-10-19T03:14:06;8.70;99.90
3281;DHT22;1652;51.318;6.202;2022-10-19T03:16:33;8.70;99.90
3281;DHT22;1652;51.318;6.202;2022-10-19T03:19:00;8.70;99.90
3281;DHT22;1652;51.318;6.202;2022-10-19T03:21:27;8.70;99.90
3281;DHT22;1652;51.318;6.202;2022-10-19T03:23:54;8.50;99.90
3281;DHT22;1652;51.318;6.202;2022-10-19T03:26:21;8.30;99.90
3281;DHT22;1652;51.318;6.202;2022-10-19T03:28:48;8.10;99.90
3281;DHT22;1652;51.318;6.202;2022-10-19T03:31:15;8.00;99.90
3281;DHT22;1652;51.318;6.202;2022-10-19T03:33:42;8.00;99.90
3281;DHT22;1652;51.318;6.202;2022-10-19T03:36:23;8.20;99.90
3281;DHT22;1652;51.318;6.202;2022-10-19T03:38:53;8.30;99.90
3281;DHT22;1652;51.318;6.202;2022-10-19T03:41:22;8.40;99.90
3281;DHT22;1652;51.318;6.202;2022-10-19T03:43:49;8.50;99.90
3281;DHT22;1652;51.318;6.202;2022-10-19T03:46:17;8.50;99.90
3281;DHT22;1652;51.318;6.202;2022-10-19T03:48:44;8.60;99.90
3281;DHT22;1652;51.318;6.202;2022-10-19T03:51:13;8.60;99.90
3281;DHT22;1652;51.318;6.202;2022-10-19T03:53:41;8.50;99.90
3281;DHT22;1652;51.318;6.202;2022-10-19T03:56:21;8.60;99.90
3281;DHT22;1652;51.318;6.202;2022-10-19T03:58:49;8.60;99.90
3281;DHT22;1652;51.318;6.202;2022-10-19T04:01:24;8.60;99.90
3281;DHT22;1652;51.318;6.202;2022-10-19T04:03:58;8.50;99.90
3281;DHT22;1652;51.318;6.202;2022-10-19T04:06:28;8.50;99.90
3281;DHT22;1652;51.318;6.202;2022-10-19T04:08:56;8.50;99.90
3281;DHT22;1652;51.318;6.202;2022-10-19T04:11:25;8.50;99.90
3281;DHT22;1652;51.318;6.202;2022-10-19T04:13:53;8.50;99.90
3281;DHT22;1652;51.318;6.202;2022-10-19T04:16:22;8.50;99.90
3281;DHT22;1652;51.318;6.202;2022-10-19T04:18:50;8.40;99.90
3281;DHT22;1652;51.318;6.202;2022-10-19T04:21:25;8.40;99.90
3281;DHT22;1652;51.318;6.202;2022-10-19T04:24:03;8.40;99.90
3281;DHT22;1652;51.318;6.202;2022-10-19T04:26:32;8.40;99.90
3281;DHT22;1652;51.318;6.202;2022-10-19T04:28:59;8.40;99.90
3281;DHT22;1652;51.318;6.202;2022-10-19T04:31:27;8.50;99.90
3281;DHT22;1652;51.318;6.202;2022-10-19T04:33:55;8.50;99.90
3281;DHT22;1652;51.318;6.202;2022-10-19T04:36:22;8.40;99.90
3281;DHT22;1652;51.318;6.202;2022-10-19T04:38:49;8.40;99.90
3281;DHT22;1652;51.318;6.202;2022-10-19T04:41:18;8.40;99.90
3281;DHT22;1652;51.318;6.202;2022-10-19T04:43:46;8.40;99.90
3281;DHT22;1652;51.318;6.202;2022-10-19T04:46:17;8.40;99.90
3281;DHT22;1652;51.318;6.202;2022-10-19T04:48:47;8.40;99.90
3281;DHT22;1652;51.318;6.202;2022-10-19T04:51:15;8.30;99.90
3281;DHT22;1652;51.318;6.202;2022-10-19T04:53:42;8.30;99.90
3281;DHT22;1652;51.318;6.202;2022-10-19T04:56:20;8.40;99.90
3281;DHT22;1652;51.318;6.202;2022-10-19T04:58:47;8.30;99.90
3281;DHT22;1652;51.318;6.202;2022-10-19T05:01:17;8.30;99.90
3281;DHT22;1652;51.318;6.202;2022-10-19T05:03:44;8.30;99.90
3281;DHT22;1652;51.318;6.202;2022-10-19T05:06:13;8.30;99.90
3281;DHT22;1652;51.318;6.202;2022-10-19T05:08:40;8.40;99.90
3281;DHT22;1652;51.318;6.202;2022-10-19T05:11:12;8.40;99.90
3281;DHT22;1652;51.318;6.202;2022-10-19T05:13:40;8.40;99.90
3281;DHT22;1652;51.318;6.202;2022-10-19T05:16:10;8.40;99.90
3281;DHT22;1652;51.318;6.202;2022-10-19T05:18:38;8.40;99.90
3281;DHT22;1652;51.318;6.202;2022-10-19T05:21:10;8.40;99.90
3281;DHT22;1652;51.318;6.202;2022-10-19T05:23:38;8.40;99.90
3281;DHT22;1652;51.318;6.202;2022-10-19T05:26:08;8.40;99.90
3281;DHT22;1652;51.318;6.202;2022-10-19T05:28:35;8.40;99.90
3281;DHT22;1652;51.318;6.202;2022-10-19T05:33:33;8.40;99.90
3281;DHT22;1652;51.318;6.202;2022-10-19T05:36:13;8.30;99.90
3281;DHT22;1652;51.318;6.202;2022-10-19T05:38:41;8.30;99.90
3281;DHT22;1652;51.318;6.202;2022-10-19T05:41:08;8.40;99.90
3281;DHT22;1652;51.318;6.202;2022-10-19T05:43:35;8.30;99.90
3281;DHT22;1652;51.318;6.202;2022-10-19T05:46:04;8.20;99.90
3281;DHT22;1652;51.318;6.202;2022-10-19T05:48:32;8.30;99.90
3281;DHT22;1652;51.318;6.202;2022-10-19T05:51:01;8.20;99.90
3281;DHT22;1652;51.318;6.202;2022-10-19T05:53:28;8.30;99.90
3281;DHT22;1652;51.318;6.202;2022-10-19T05:55:56;8.30;99.90
3281;DHT22;1652;51.318;6.202;2022-10-19T05:58:23;8.20;99.90
3281;DHT22;1652;51.318;6.202;2022-10-19T06:03:18;8.10;99.90
3281;DHT22;1652;51.318;6.202;2022-10-19T06:05:45;8.00;99.90
3281;DHT22;1652;51.318;6.202;2022-10-19T06:08:12;8.10;99.90
3281;DHT22;1652;51.318;6.202;2022-10-19T06:10:39;8.20;99.90
3281;DHT22;1652;51.318;6.202;2022-10-19T06:13:07;8.20;99.90
3281;DHT22;1652;51.318;6.202;2022-10-19T06:15:34;8.20;99.90
3281;DHT22;1652;51.318;6.202;2022-10-19T06:18:09;8.20;99.90
3281;DHT22;1652;51.318;6.202;2022-10-19T06:20:38;8.10;99.90
3281;DHT22;1652;51.318;6.202;2022-10-19T06:23:07;8.20;99.90
3281;DHT22;1652;51.318;6.202;2022-10-19T06:25:34;8.20;99.90
3281;DHT22;1652;51.318;6.202;2022-10-19T06:28:02;8.30;99.90
3281;DHT22;1652;51.318;6.202;2022-10-19T06:30:29;8.40;99.90
3281;DHT22;1652;51.318;6.202;2022-10-19T06:32:57;8.40;99.90
3281;DHT22;1652;51.318;6.202;2022-10-19T06:35:24;8.40;99.90
3281;DHT22;1652;51.318;6.202;2022-10-19T06:37:51;8.40;99.90
3281;DHT22;1652;51.318;6.202;2022-10-19T06:40:18;8.40;99.90
3281;DHT22;1652;51.318;6.202;2022-10-19T06:42:45;8.50;99.90
3281;DHT22;1652;51.318;6.202;2022-10-19T06:45:11;8.60;99.90
3281;DHT22;1652;51.318;6.202;2022-10-19T06:47:38;8.70;99.90
3281;DHT22;1652;51.318;6.202;2022-10-19T06:50:06;8.80;99.90
3281;DHT22;1652;51.318;6.202;2022-10-19T06:52:34;8.90;99.90
3281;DHT22;1652;51.318;6.202;2022-10-19T06:55:01;9.10;99.90
3281;DHT22;1652;51.318;6.202;2022-10-19T06:57:28;9.60;99.90
3281;DHT22;1652;51.318;6.202;2022-10-19T06:59:55;10.10;99.90
3281;DHT22;1652;51.318;6.202;2022-10-19T07:02:22;10.60;99.90
3281;DHT22;1652;51.318;6.202;2022-10-19T07:04:48;10.90;99.90
3281;DHT22;1652;51.318;6.202;2022-10-19T07:07:15;11.30;99.90
3281;DHT22;1652;51.318;6.202;2022-10-19T07:09:42;11.50;99.90
3281;DHT22;1652;51.318;6.202;2022-10-19T07:12:09;11.80;99.90
3281;DHT22;1652;51.318;6.202;2022-10-19T07:14:36;12.00;99.90
3281;DHT22;1652;51.318;6.202;2022-10-19T07:17:06;12.20;99.90
3281;DHT22;1652;51.318;6.202;2022-10-19T07:19:33;12.50;99.90
3281;DHT22;1652;51.318;6.202;2022-10-19T07:22:00;12.60;99.90
3281;DHT22;1652;51.318;6.202;2022-10-19T07:24:27;12.50;99.90
3281;DHT22;1652;51.318;6.202;2022-10-19T07:26:54;12.60;99.90
3281;DHT22;1652;51.318;6.202;2022-10-19T07:29:21;12.60;99.90
3281;DHT22;1652;51.318;6.202;2022-10-19T07:31:48;12.60;99.90
3281;DHT22;1652;51.318;6.202;2022-10-19T07:34:15;12.40;99.90
3281;DHT22;1652;51.318;6.202;2022-10-19T07:36:44;12.40;99.90
3281;DHT22;1652;51.318;6.202;2022-10-19T07:39:14;12.40;99.90
3281;DHT22;1652;51.318;6.202;2022-10-19T07:41:43;12.50;99.90
3281;DHT22;1652;51.318;6.202;2022-10-19T07:44:10;12.60;99.90
3281;DHT22;1652;51.318;6.202;2022-10-19T07:46:41;12.60;99.90
3281;DHT22;1652;51.318;6.202;2022-10-19T07:49:11;12.50;99.90
3281;DHT22;1652;51.318;6.202;2022-10-19T07:51:39;12.60;99.90
3281;DHT22;1652;51.318;6.202;2022-10-19T07:54:06;12.90;99.90
3281;DHT22;1652;51.318;6.202;2022-10-19T07:56:33;12.90;99.90
3281;DHT22;1652;51.318;6.202;2022-10-19T07:59:00;12.90;99.90
3281;DHT22;1652;51.318;6.202;2022-10-19T08:01:33;13.20;99.90
3281;DHT22;1652;51.318;6.202;2022-10-19T08:04:00;13.10;99.90
3281;DHT22;1652;51.318;6.202;2022-10-19T08:06:48;13.00;99.90
3281;DHT22;1652;51.318;6.202;2022-10-19T08:09:14;13.00;99.90
3281;DHT22;1652;51.318;6.202;2022-10-19T08:12:03;12.90;99.90
3281;DHT22;1652;51.318;6.202;2022-10-19T08:14:30;12.80;99.90
3281;DHT22;1652;51.318;6.202;2022-10-19T08:16:57;12.80;99.90
3281;DHT22;1652;51.318;6.202;2022-10-19T08:19:24;12.80;99.90
3281;DHT22;1652;51.318;6.202;2022-10-19T08:21:51;12.50;99.90
3281;DHT22;1652;51.318;6.202;2022-10-19T08:24:19;12.20;99.90
3281;DHT22;1652;51.318;6.202;2022-10-19T08:26:46;12.00;99.90
3281;DHT22;1652;51.318;6.202;2022-10-19T08:29:18;11.90;99.90
3281;DHT22;1652;51.318;6.202;2022-10-19T08:31:46;11.70;99.90
3281;DHT22;1652;51.318;6.202;2022-10-19T08:34:14;11.60;99.90
3281;DHT22;1652;51.318;6.202;2022-10-19T08:36:41;11.60;99.90
3281;DHT22;1652;51.318;6.202;2022-10-19T08:39:09;11.50;99.90
3281;DHT22;1652;51.318;6.202;2022-10-19T08:44:50;11.50;99.90
3281;DHT22;1652;51.318;6.202;2022-10-19T08:50:22;11.60;99.90
3281;DHT22;1652;51.318;6.202;2022-10-19T08:52:57;11.60;99.90
3281;DHT22;1652;51.318;6.202;2022-10-19T08:55:32;11.60;99.90
3281;DHT22;1652;51.318;6.202;2022-10-19T08:58:17;11.80;99.90
3281;DHT22;1652;51.318;6.202;2022-10-19T09:00:48;11.80;99.90
3281;DHT22;1652;51.318;6.202;2022-10-19T09:03:40;11.80;99.90
3281;DHT22;1652;51.318;6.202;2022-10-19T09:07:11;11.80;99.90
3281;DHT22;1652;51.318;6.202;2022-10-19T09:09:31;11.80;99.90
3281;DHT22;1652;51.318;6.202;2022-10-19T09:12:04;11.80;99.90
3281;DHT22;1652;51.318;6.202;2022-10-19T09:15:12;11.90;99.90
3281;DHT22;1652;51.318;6.202;2022-10-19T09:17:39;11.90;99.90
3281;DHT22;1652;51.318;6.202;2022-10-19T09:20:22;12.00;99.90
3281;DHT22;1652;51.318;6.202;2022-10-19T09:25:48;12.00;99.90
3281;DHT22;1652;51.318;6.202;2022-10-19T09:31:02;12.00;99.90
3281;DHT22;1652;51.318;6.202;2022-10-19T09:33:36;12.00;99.90
3281;DHT22;1652;51.318;6.202;2022-10-19T09:36:05;12.00;99.90
3281;DHT22;1652;51.318;6.202;2022-10-19T09:38:33;12.10;99.90
3281;DHT22;1652;51.318;6.202;2022-10-19T09:41:20;12.10;99.90
3281;DHT22;1652;51.318;6.202;2022-10-19T09:43:51;12.20;99.90
3281;DHT22;1652;51.318;6.202;2022-10-19T09:46:26;12.30;99.90
3281;DHT22;1652;51.318;6.202;2022-10-19T09:48:58;12.40;99.90
3281;DHT22;1652;51.318;6.202;2022-10-19T09:51:38;12.40;99.90
3281;DHT22;1652;51.318;6.202;2022-10-19T09:54:22;12.50;99.90
3281;DHT22;1652;51.318;6.202;2022-10-19T09:56:54;12.50;99.90
3281;DHT22;1652;51.318;6.202;2022-10-19T09:59:23;12.60;99.90
3281;DHT22;1652;51.318;6.202;2022-10-19T10:02:21;12.70;99.90
3281;DHT22;1652;51.318;6.202;2022-10-19T10:07:35;12.80;99.90
3281;DHT22;1652;51.318;6.202;2022-10-19T10:10:19;12.90;99.90
3281;DHT22;1652;51.318;6.202;2022-10-19T10:12:47;13.10;99.90
3281;DHT22;1652;51.318;6.202;2022-10-19T10:15:21;13.20;99.90
3281;DHT22;1652;51.318;6.202;2022-10-19T10:18:03;13.20;99.90
3281;DHT22;1652;51.318;6.202;2022-10-19T10:20:31;13.10;99.90
3281;DHT22;1652;51.318;6.202;2022-10-19T10:23:03;13.10;99.90
3281;DHT22;1652;51.318;6.202;2022-10-19T10:25:35;13.20;99.90
3281;DHT22;1652;51.318;6.202;2022-10-19T10:28:23;13.20;99.90
3281;DHT22;1652;51.318;6.202;2022-10-19T10:31:04;13.20;99.80
3281;DHT22;1652;51.318;6.202;2022-10-19T10:33:35;13.30;99.90
3281;DHT22;1652;51.318;6.202;2022-10-19T10:36:11;13.40;99.90
3281;DHT22;1652;51.318;6.202;2022-10-19T10:38:44;13.50;99.40
3281;DHT22;1652;51.318;6.202;2022-10-19T10:41:17;13.50;99.90
3281;DHT22;1652;51.318;6.202;2022-10-19T10:44:00;13.60;99.90
3281;DHT22;1652;51.318;6.202;2022-10-19T10:46:36;13.60;99.90
3281;DHT22;1652;51.318;6.202;2022-10-19T10:49:13;13.60;99.90
3281;DHT22;1652;51.318;6.202;2022-10-19T10:51:43;13.80;99.90
3281;DHT22;1652;51.318;6.202;2022-10-19T10:57:14;13.80;97.20
3281;DHT22;1652;51.318;6.202;2022-10-19T11:00:04;13.80;98.40
3281;DHT22;1652;51.318;6.202;2022-10-19T11:02:43;13.90;99.70
3281;DHT22;1652;51.318;6.202;2022-10-19T11:05:30;14.00;97.20
3281;DHT22;1652;51.318;6.202;2022-10-19T11:10:40;13.90;94.30
3281;DHT22;1652;51.318;6.202;2022-10-19T11:13:15;14.00;97.60
3281;DHT22;1652;51.318;6.202;2022-10-19T11:21:00;14.00;98.00
3281;DHT22;1652;51.318;6.202;2022-10-19T11:23:40;14.10;96.50
3281;DHT22;1652;51.318;6.202;2022-10-19T11:26:40;14.10;97.40
3281;DHT22;1652;51.318;6.202;2022-10-19T11:29:25;14.20;96.90
3281;DHT22;1652;51.318;6.202;2022-10-19T11:31:56;14.30;95.20
3281;DHT22;1652;51.318;6.202;2022-10-19T11:37:25;14.30;92.10
3281;DHT22;1652;51.318;6.202;2022-10-19T11:45:20;14.40;95.70
3281;DHT22;1652;51.318;6.202;2022-10-19T11:50:48;14.40;95.20
3281;DHT22;1652;51.318;6.202;2022-10-19T11:53:55;14.40;91.40
3281;DHT22;1652;51.318;6.202;2022-10-19T11:59:54;14.60;91.80
3281;DHT22;1652;51.318;6.202;2022-10-19T12:10:56;14.60;84.30
3281;DHT22;1652;51.318;6.202;2022-10-19T12:13:41;14.60;90.90
3281;DHT22;1652;51.318;6.202;2022-10-19T12:16:10;14.50;84.30
3281;DHT22;1652;51.318;6.202;2022-10-19T12:18:40;14.60;80.00
3281;DHT22;1652;51.318;6.202;2022-10-19T12:21:13;14.60;82.40
3281;DHT22;1652;51.318;6.202;2022-10-19T12:23:44;14.60;90.30
3281;DHT22;1652;51.318;6.202;2022-10-19T12:26:17;14.60;89.10
3281;DHT22;1652;51.318;6.202;2022-10-19T12:28:49;14.60;90.60
3281;DHT22;1652;51.318;6.202;2022-10-19T12:31:17;14.60;84.40
3281;DHT22;1652;51.318;6.202;2022-10-19T12:34:27;14.60;82.60
3281;DHT22;1652;51.318;6.202;2022-10-19T12:37:24;14.70;91.60
3281;DHT22;1652;51.318;6.202;2022-10-19T12:42:30;14.80;80.80
3281;DHT22;1652;51.318;6.202;2022-10-19T12:53:31;14.90;78.20
3281;DHT22;1652;51.318;6.202;2022-10-19T12:56:03;15.00;80.20
3281;DHT22;1652;51.318;6.202;2022-10-19T13:01:26;14.90;71.40
3281;DHT22;1652;51.318;6.202;2022-10-19T13:04:15;14.90;12.70
3281;DHT22;1652;51.318;6.202;2022-10-19T13:07:14;15.00;11.40
3281;DHT22;1652;51.318;6.202;2022-10-19T13:09:45;15.00;8.80
3281;DHT22;1652;51.318;6.202;2022-10-19T13:14:55;15.00;8.90
3281;DHT22;1652;51.318;6.202;2022-10-19T13:22:44;15.00;11.70
3281;DHT22;1652;51.318;6.202;2022-10-19T13:33:41;15.00;12.60
3281;DHT22;1652;51.318;6.202;2022-10-19T13:36:10;15.00;11.40
3281;DHT22;1652;51.318;6.202;2022-10-19T13:41:26;15.00;10.90
3281;DHT22;1652;51.318;6.202;2022-10-19T13:55:17;14.90;20.80
3281;DHT22;1652;51.318;6.202;2022-10-19T13:58:15;14.90;13.10
3281;DHT22;1652;51.318;6.202;2022-10-19T14:04:12;15.00;33.50
3281;DHT22;1652;51.318;6.202;2022-10-19T14:12:28;15.00;27.80
3281;DHT22;1652;51.318;6.202;2022-10-19T14:14:56;15.00;26.50
3281;DHT22;1652;51.318;6.202;2022-10-19T14:17:29;15.00;18.70
3281;DHT22;1652;51.318;6.202;2022-10-19T14:20:00;15.00;21.50
3281;DHT22;1652;51.318;6.202;2022-10-19T14:25:06;15.00;20.80
3281;DHT22;1652;51.318;6.202;2022-10-19T14:27:41;15.00;22.80
3281;DHT22;1652;51.318;6.202;2022-10-19T14:30:29;15.00;22.00
3281;DHT22;1652;51.318;6.202;2022-10-19T14:32:59;15.10;22.80
3281;DHT22;1652;51.318;6.202;2022-10-19T14:35:32;15.10;20.20
3281;DHT22;1652;51.318;6.202;2022-10-19T14:38:01;15.20;20.60
3281;DHT22;1652;51.318;6.202;2022-10-19T14:40:31;15.20;9.70
3281;DHT22;1652;51.318;6.202;2022-10-19T14:42:59;15.20;13.90
3281;DHT22;1652;51.318;6.202;2022-10-19T14:45:30;15.30;16.60
3281;DHT22;1652;51.318;6.202;2022-10-19T14:48:00;15.30;11.70
3281;DHT22;1652;51.318;6.202;2022-10-19T14:50:42;15.30;18.60
3281;DHT22;1652;51.318;6.202;2022-10-19T14:53:36;15.40;15.20
3281;DHT22;1652;51.318;6.202;2022-10-19T14:58:44;15.50;2.30
3281;DHT22;1652;51.318;6.202;2022-10-19T15:01:14;15.50;8.10
3281;DHT22;1652;51.318;6.202;2022-10-19T15:03:43;15.50;1.00
3281;DHT22;1652;51.318;6.202;2022-10-19T15:06:26;15.50;1.00
3281;DHT22;1652;51.318;6.202;2022-10-19T15:12:05;15.50;1.00
3281;DHT22;1652;51.318;6.202;2022-10-19T15:14:33;15.50;1.00
3281;DHT22;1652;51.318;6.202;2022-10-19T15:17:02;15.40;1.00
3281;DHT22;1652;51.318;6.202;2022-10-19T15:22:17;15.40;5.40
3281;DHT22;1652;51.318;6.202;2022-10-19T15:25:01;15.30;11.30
3281;DHT22;1652;51.318;6.202;2022-10-19T15:27:34;15.30;12.00
3281;DHT22;1652;51.318;6.202;2022-10-19T15:32:46;15.10;9.70
3281;DHT22;1652;51.318;6.202;2022-10-19T15:37:50;14.90;29.30
3281;DHT22;1652;51.318;6.202;2022-10-19T15:40:31;14.80;41.40
3281;DHT22;1652;51.318;6.202;2022-10-19T15:42:59;14.80;37.00
3281;DHT22;1652;51.318;6.202;2022-10-19T15:45:28;14.70;52.00
3281;DHT22;1652;51.318;6.202;2022-10-19T15:50:44;14.40;60.60
3281;DHT22;1652;51.318;6.202;2022-10-19T15:53:17;14.40;61.30
3281;DHT22;1652;51.318;6.202;2022-10-19T15:55:44;14.30;63.30
3281;DHT22;1652;51.318;6.202;2022-10-19T15:58:12;14.20;63.90
3281;DHT22;1652;51.318;6.202;2022-10-19T16:00:40;14.20;64.50
3281;DHT22;1652;51.318;6.202;2022-10-19T16:03:07;14.10;65.60
3281;DHT22;1652;51.318;6.202;2022-10-19T16:05:35;14.10;68.90
3281;DHT22;1652;51.318;6.202;2022-10-19T16:08:03;14.00;74.70
3281;DHT22;1652;51.318;6.202;2022-10-19T16:10:32;14.00;75.90
3281;DHT22;1652;51.318;6.202;2022-10-19T16:12:59;13.90;80.70
3281;DHT22;1652;51.318;6.202;2022-10-19T16:15:25;13.80;89.20
3281;DHT22;1652;51.318;6.202;2022-10-19T16:17:55;13.70;89.50
3281;DHT22;1652;51.318;6.202;2022-10-19T16:20:25;13.70;91.40
3281;DHT22;1652;51.318;6.202;2022-10-19T16:22:52;13.60;92.90
3281;DHT22;1652;51.318;6.202;2022-10-19T16:25:19;13.50;95.90
3281;DHT22;1652;51.318;6.202;2022-10-19T16:27:46;13.40;96.20
3281;DHT22;1652;51.318;6.202;2022-10-19T16:30:13;13.40;95.80
3281;DHT22;1652;51.318;6.202;2022-10-19T16:32:40;13.30;99.50
3281;DHT22;1652;51.318;6.202;2022-10-19T16:35:08;13.20;98.60
3281;DHT22;1652;51.318;6.202;2022-10-19T16:37:35;13.20;98.70
3281;DHT22;1652;51.318;6.202;2022-10-19T16:40:03;13.20;98.60
3281;DHT22;1652;51.318;6.202;2022-10-19T16:42:31;13.00;99.90
3281;DHT22;1652;51.318;6.202;2022-10-19T16:44:58;13.00;99.90
3281;DHT22;1652;51.318;6.202;2022-10-19T16:47:25;12.90;99.90
3281;DHT22;1652;51.318;6.202;2022-10-19T16:49:59;12.90;99.90
3281;DHT22;1652;51.318;6.202;2022-10-19T16:52:27;12.90;99.90
3281;DHT22;1652;51.318;6.202;2022-10-19T16:54:55;12.80;99.90
3281;DHT22;1652;51.318;6.202;2022-10-19T16:57:22;12.80;99.90
3281;DHT22;1652;51.318;6.202;2022-10-19T16:59:50;12.80;99.90
3281;DHT22;1652;51.318;6.202;2022-10-19T17:02:20;12.80;99.90
3281;DHT22;1652;51.318;6.202;2022-10-19T17:04:47;12.80;99.90
3281;DHT22;1652;51.318;6.202;2022-10-19T17:07:14;12.70;99.90
3281;DHT22;1652;51.318;6.202;2022-10-19T17:09:41;12.70;99.90
3281;DHT22;1652;51.318;6.202;2022-10-19T17:12:09;12.70;99.90
3281;DHT22;1652;51.318;6.202;2022-10-19T17:14:38;12.70;99.90
3281;DHT22;1652;51.318;6.202;2022-10-19T17:17:06;12.70;99.90
3281;DHT22;1652;51.318;6.202;2022-10-19T17:19:34;12.70;99.90
3281;DHT22;1652;51.318;6.202;2022-10-19T17:22:02;12.70;99.90
3281;DHT22;1652;51.318;6.202;2022-10-19T17:24:30;12.70;99.90
3281;DHT22;1652;51.318;6.202;2022-10-19T17:27:00;12.70;99.90
3281;DHT22;1652;51.318;6.202;2022-10-19T17:29:28;12.70;99.90
3281;DHT22;1652;51.318;6.202;2022-10-19T17:31:55;12.70;99.90
3281;DHT22;1652;51.318;6.202;2022-10-19T17:34:22;12.70;99.90
3281;DHT22;1652;51.318;6.202;2022-10-19T17:36:49;12.70;99.90
3281;DHT22;1652;51.318;6.202;2022-10-19T17:39:19;12.70;99.90
3281;DHT22;1652;51.318;6.202;2022-10-19T17:41:52;12.60;99.90
3281;DHT22;1652;51.318;6.202;2022-10-19T17:44:20;12.60;99.90
3281;DHT22;1652;51.318;6.202;2022-10-19T17:46:47;12.60;99.90
3281;DHT22;1652;51.318;6.202;2022-10-19T17:49:14;12.60;99.90
3281;DHT22;1652;51.318;6.202;2022-10-19T17:51:42;12.50;99.90
3281;DHT22;1652;51.318;6.202;2022-10-19T17:54:13;12.50;99.90
3281;DHT22;1652;51.318;6.202;2022-10-19T17:56:40;12.50;99.90
3281;DHT22;1652;51.318;6.202;2022-10-19T17:59:11;12.50;99.90
3281;DHT22;1652;51.318;6.202;2022-10-19T18:01:38;12.50;99.90
3281;DHT22;1652;51.318;6.202;2022-10-19T18:04:05;12.40;99.90
3281;DHT22;1652;51.318;6.202;2022-10-19T18:06:34;12.40;99.90
3281;DHT22;1652;51.318;6.202;2022-10-19T18:09:11;12.30;99.90
3281;DHT22;1652;51.318;6.202;2022-10-19T18:11:41;12.30;99.90
3281;DHT22;1652;51.318;6.202;2022-10-19T18:14:09;12.20;99.90
3281;DHT22;1652;51.318;6.202;2022-10-19T18:16:46;12.20;99.90
3281;DHT22;1652;51.318;6.202;2022-10-19T18:19:14;12.20;99.90
3281;DHT22;1652;51.318;6.202;2022-10-19T18:21:44;12.10;99.90
3281;DHT22;1652;51.318;6.202;2022-10-19T18:24:13;12.10;99.90
3281;DHT22;1652;51.318;6.202;2022-10-19T18:26:45;12.00;99.90
3281;DHT22;1652;51.318;6.202;2022-10-19T18:29:15;12.00;99.90
3281;DHT22;1652;51.318;6.202;2022-10-19T18:31:42;11.90;99.90
3281;DHT22;1652;51.318;6.202;2022-10-19T18:34:14;11.90;99.90
3281;DHT22;1652;51.318;6.202;2022-10-19T18:36:41;11.90;99.90
3281;DHT22;1652;51.318;6.202;2022-10-19T18:39:10;11.80;99.90
3281;DHT22;1652;51.318;6.202;2022-10-19T18:41:37;11.80;99.90
3281;DHT22;1652;51.318;6.202;2022-10-19T18:44:04;11.80;99.90
3281;DHT22;1652;51.318;6.202;2022-10-19T18:46:34;11.80;99.90
3281;DHT22;1652;51.318;6.202;2022-10-19T18:49:05;11.70;99.90
3281;DHT22;1652;51.318;6.202;2022-10-19T18:51:33;11.70;99.90
3281;DHT22;1652;51.318;6.202;2022-10-19T18:54:00;11.70;99.90
3281;DHT22;1652;51.318;6.202;2022-10-19T18:56:27;11.60;99.90
3281;DHT22;1652;51.318;6.202;2022-10-19T18:58:55;11.60;99.90
3281;DHT22;1652;51.318;6.202;2022-10-19T19:01:24;11.50;99.90
3281;DHT22;1652;51.318;6.202;2022-10-19T19:03:55;11.50;99.90
3281;DHT22;1652;51.318;6.202;2022-10-19T19:06:24;11.50;99.90
3281;DHT22;1652;51.318;6.202;2022-10-19T19:08:55;11.50;99.90